createdAt,value
2019-02-06T00:00:08.928Z,57.83
2019-02-06T00:02:37.288Z,67.77
2019-02-06T00:05:13.922Z,55.27
2019-02-06T00:07:36.830Z,60.03
2019-02-06T00:10:06.951Z,59.40
2019-02-06T00:12:35.198Z,66.43
2019-02-06T00:15:04.401Z,65.00
2019-02-06T00:17:32.774Z,57.33
2019-02-06T00:20:01.029Z,64.87
2019-02-06T00:22:29.255Z,72.13
2019-02-06T00:24:57.526Z,68.47
2019-02-06T00:27:26.216Z,63.50
2019-02-06T00:29:54.477Z,71.03
2019-02-06T00:32:22.704Z,61.97
2019-02-06T00:34:50.959Z,59.17
2019-02-06T00:37:19.184Z,64.23
2019-02-06T00:39:47.464Z,66.63
2019-02-06T00:42:16.069Z,64.33
2019-02-06T00:44:44.321Z,65.33
2019-02-06T00:47:12.613Z,66.07
2019-02-06T00:49:40.874Z,62.60
2019-02-06T00:52:09.100Z,54.53
2019-02-06T00:54:37.324Z,71.50
2019-02-06T00:57:05.576Z,61.90
2019-02-06T00:59:34.106Z,68.37
2019-02-06T01:02:03.031Z,68.77
2019-02-06T01:04:31.316Z,56.20
2019-02-06T01:06:59.641Z,61.90
2019-02-06T01:09:28.044Z,69.97
2019-02-06T01:11:56.467Z,68.33
2019-02-06T01:14:24.688Z,72.90
2019-02-06T01:16:53.056Z,66.53
2019-02-06T01:19:21.344Z,79.50
2019-02-06T01:21:49.601Z,61.73
2019-02-06T01:24:17.830Z,67.67
2019-02-06T01:26:46.085Z,81.60
2019-02-06T01:29:14.309Z,77.37
2019-02-06T01:31:42.566Z,69.10
2019-02-06T01:34:10.787Z,73.80
2019-02-06T01:36:39.040Z,78.27
2019-02-06T01:39:09.283Z,85.07
2019-02-06T01:41:37.610Z,58.50
2019-02-06T01:44:05.834Z,61.60
2019-02-06T01:46:34.089Z,69.90
2019-02-06T01:49:02.508Z,71.30
2019-02-06T01:51:30.733Z,82.93
2019-02-06T01:53:58.993Z,91.77
2019-02-06T01:56:27.218Z,77.07
2019-02-06T01:58:55.469Z,67.17
2019-02-06T02:01:23.697Z,78.97
2019-02-06T02:03:52.007Z,64.90
2019-02-06T02:06:20.627Z,97.63
2019-02-06T02:08:50.555Z,75.23
2019-02-06T02:11:18.815Z,84.57
2019-02-06T02:13:47.052Z,85.30
2019-02-06T02:16:15.259Z,89.50
2019-02-06T02:18:43.570Z,85.17
2019-02-06T02:21:11.963Z,77.60
2019-02-06T02:23:40.381Z,69.17
2019-02-06T02:26:08.595Z,82.10
2019-02-06T02:28:36.843Z,80.30
2019-02-06T02:31:05.132Z,89.47
2019-02-06T02:33:33.375Z,83.33
2019-02-06T02:36:14.474Z,75.60
2019-02-06T02:38:31.488Z,86.50
2019-02-06T02:40:59.780Z,72.07
2019-02-06T02:43:28.016Z,82.57
2019-02-06T02:45:56.304Z,97.20
2019-02-06T02:48:24.555Z,77.83
2019-02-06T02:50:52.777Z,91.73
2019-02-06T02:53:21.023Z,76.10
2019-02-06T02:55:49.543Z,81.87
2019-02-06T02:58:17.867Z,91.83
2019-02-06T03:00:56.659Z,85.03
2019-02-06T03:03:38.619Z,90.93
2019-02-06T03:06:07.211Z,82.63
2019-02-06T03:08:35.523Z,89.97
2019-02-06T03:11:04.108Z,86.07
2019-02-06T03:13:32.360Z,74.10
2019-02-06T03:16:00.577Z,76.83
2019-02-06T03:18:28.825Z,88.83
2019-02-06T03:20:57.104Z,83.90
2019-02-06T03:23:25.820Z,102.23
2019-02-06T03:25:54.107Z,90.17
2019-02-06T03:28:22.394Z,84.50
2019-02-06T03:30:50.587Z,91.70
2019-02-06T03:33:18.815Z,87.20
2019-02-06T03:35:47.051Z,90.90
2019-02-06T03:38:15.271Z,82.10
2019-02-06T03:40:43.732Z,91.77
2019-02-06T03:43:12.011Z,81.47
2019-02-06T03:45:40.254Z,88.33
2019-02-06T03:48:08.538Z,75.50
2019-02-06T03:50:36.785Z,76.80
2019-02-06T03:53:05.005Z,68.93
2019-02-06T03:55:33.244Z,83.57
2019-02-06T03:58:01.461Z,77.83
2019-02-06T04:00:29.905Z,99.07
2019-02-06T04:02:58.191Z,89.13
2019-02-06T04:05:26.507Z,87.50
2019-02-06T04:07:54.729Z,94.67
2019-02-06T04:10:23.043Z,73.13
2019-02-06T04:12:51.259Z,73.13
2019-02-06T04:15:19.575Z,70.53
2019-02-06T04:17:47.796Z,75.10
2019-02-06T04:20:16.513Z,78.40
2019-02-06T04:22:44.794Z,83.90
2019-02-06T04:25:14.011Z,98.00
2019-02-06T04:27:42.235Z,77.27
2019-02-06T04:30:12.419Z,80.03
2019-02-06T04:32:40.699Z,75.83
2019-02-06T04:35:09.822Z,87.47
2019-02-06T04:37:38.036Z,79.83
2019-02-06T04:40:10.472Z,94.67
2019-02-06T04:42:38.687Z,74.70
2019-02-06T04:45:08.419Z,64.77
2019-02-06T04:47:36.639Z,55.63
2019-02-06T04:50:09.496Z,72.17
2019-02-06T04:52:37.858Z,72.63
2019-02-06T04:55:07.234Z,91.37
2019-02-06T04:57:35.480Z,79.73
2019-02-06T05:00:05.639Z,77.40
2019-02-06T05:02:33.891Z,78.83
2019-02-06T05:05:02.171Z,74.83
2019-02-06T05:07:30.412Z,77.50
2019-02-06T05:09:58.639Z,73.67
2019-02-06T05:12:26.874Z,64.47
2019-02-06T05:14:55.096Z,71.87
2019-02-06T05:17:23.643Z,73.33
2019-02-06T05:19:51.865Z,75.97
2019-02-06T05:22:20.113Z,69.33
2019-02-06T05:24:48.334Z,68.73
2019-02-06T05:27:16.579Z,68.90
2019-02-06T05:29:44.803Z,78.40
2019-02-06T05:32:13.042Z,75.33
2019-02-06T05:34:41.461Z,77.40
2019-02-06T05:37:09.711Z,85.53
2019-02-06T05:39:37.924Z,71.53
2019-02-06T05:42:06.173Z,75.23
2019-02-06T05:44:34.394Z,70.67
2019-02-06T05:47:02.640Z,66.63
2019-02-06T05:49:30.862Z,61.67
2019-02-06T05:51:59.507Z,73.93
2019-02-06T05:54:27.727Z,81.67
2019-02-06T05:56:55.971Z,79.67
2019-02-06T05:59:24.210Z,69.13
2019-02-06T06:01:52.440Z,74.63
2019-02-06T06:04:20.723Z,89.33
2019-02-06T06:06:48.975Z,77.87
2019-02-06T06:09:17.498Z,74.03
2019-02-06T06:11:45.750Z,74.50
2019-02-06T06:14:13.968Z,64.83
2019-02-06T06:16:42.183Z,75.73
2019-02-06T06:19:10.427Z,61.27
2019-02-06T06:21:38.644Z,56.53
2019-02-06T06:24:09.042Z,59.63
2019-02-06T06:26:36.831Z,60.50
2019-02-06T06:29:05.081Z,64.33
2019-02-06T06:31:33.367Z,71.03
2019-02-06T06:34:01.625Z,58.63
2019-02-06T06:36:29.845Z,68.70
2019-02-06T06:38:58.088Z,65.60
2019-02-06T06:41:26.374Z,68.53
2019-02-06T06:43:54.820Z,61.90
2019-02-06T06:46:23.036Z,62.80
2019-02-06T06:48:51.286Z,49.07
2019-02-06T06:51:19.499Z,51.17
2019-02-06T06:53:47.748Z,57.33
2019-02-06T06:56:15.968Z,60.20
2019-02-06T06:58:44.208Z,76.43
2019-02-06T07:01:12.627Z,61.80
2019-02-06T07:03:40.939Z,62.27
2019-02-06T07:06:09.151Z,55.13
2019-02-06T07:08:37.451Z,62.17
2019-02-06T07:11:06.335Z,54.33
2019-02-06T07:13:34.655Z,64.30
2019-02-06T07:16:02.885Z,57.00
2019-02-06T07:18:31.187Z,41.07
2019-02-06T07:21:01.398Z,64.37
2019-02-06T07:23:29.292Z,50.10
2019-02-06T07:25:57.579Z,62.43
2019-02-06T07:28:25.827Z,71.43
2019-02-06T07:30:54.048Z,59.57
2019-02-06T07:33:22.690Z,55.33
2019-02-06T07:35:50.903Z,61.47
2019-02-06T07:38:24.481Z,57.23
2019-02-06T07:40:49.023Z,69.97
2019-02-06T07:43:17.315Z,44.07
2019-02-06T07:45:45.559Z,58.20
2019-02-06T07:48:13.772Z,50.93
2019-02-06T07:50:42.196Z,60.90
2019-02-06T07:53:10.407Z,52.60
2019-02-06T07:55:38.691Z,66.97
2019-02-06T07:58:06.906Z,76.07
2019-02-06T08:00:35.155Z,64.90
2019-02-06T08:03:03.444Z,55.27
2019-02-06T08:05:31.760Z,55.20
2019-02-06T08:08:00.044Z,55.57
2019-02-06T08:10:29.562Z,50.07
2019-02-06T08:12:57.947Z,59.27
2019-02-06T08:15:26.187Z,59.00
2019-02-06T08:17:54.473Z,58.00
2019-02-06T08:20:23.283Z,70.13
2019-02-06T08:22:52.270Z,63.93
2019-02-06T08:25:21.502Z,56.50
2019-02-06T08:27:49.979Z,54.10
2019-02-06T08:30:22.472Z,62.40
2019-02-06T08:32:50.751Z,50.43
2019-02-06T08:35:19.071Z,60.67
2019-02-06T08:37:47.764Z,68.10
2019-02-06T08:40:17.387Z,61.23
2019-02-06T08:42:45.596Z,52.37
2019-02-06T08:45:15.512Z,51.50
2019-02-06T08:47:43.804Z,55.10
2019-02-06T08:50:13.587Z,62.97
2019-02-06T08:52:41.870Z,61.43
2019-02-06T08:55:11.655Z,60.13
2019-02-06T08:57:39.943Z,53.07
2019-02-06T09:00:12.432Z,45.80
2019-02-06T09:02:40.640Z,50.37
2019-02-06T09:05:09.259Z,58.53
2019-02-06T09:07:37.615Z,66.30
2019-02-06T09:10:07.803Z,54.93
2019-02-06T09:12:36.019Z,47.97
2019-02-06T09:15:07.192Z,51.17
2019-02-06T09:17:35.474Z,62.83
2019-02-06T09:20:05.571Z,44.93
2019-02-06T09:22:33.820Z,63.80
2019-02-06T09:25:02.553Z,54.27
2019-02-06T09:27:30.822Z,57.17
2019-02-06T09:29:59.067Z,45.40
2019-02-06T09:32:27.288Z,55.47
2019-02-06T09:34:55.502Z,59.10
2019-02-06T09:37:23.815Z,47.67
2019-02-06T09:39:52.036Z,60.00
2019-02-06T09:42:20.592Z,47.33
2019-02-06T09:44:48.811Z,54.93
2019-02-06T09:47:17.085Z,54.77
2019-02-06T09:49:45.280Z,60.20
2019-02-06T09:52:13.598Z,58.33
2019-02-06T09:54:41.888Z,45.50
2019-02-06T09:57:10.136Z,49.17
2019-02-06T09:59:38.620Z,46.87
2019-02-06T10:02:09.471Z,47.93
2019-02-06T10:04:36.735Z,59.90
2019-02-06T10:07:05.052Z,44.90
2019-02-06T10:09:33.272Z,60.40
2019-02-06T10:12:01.519Z,48.57
2019-02-06T10:14:29.748Z,44.00
2019-02-06T10:16:57.987Z,47.53
2019-02-06T10:19:26.199Z,50.23
2019-02-06T10:21:54.448Z,54.53
2019-02-06T10:24:22.669Z,49.23
2019-02-06T10:26:50.929Z,54.57
2019-02-06T10:29:19.131Z,50.17
2019-02-06T10:31:47.681Z,45.60
2019-02-06T10:34:15.900Z,34.60
2019-02-06T10:36:44.149Z,49.43
2019-02-06T10:39:12.466Z,51.13
2019-02-06T10:41:40.686Z,51.13
2019-02-06T10:44:09.147Z,47.40
2019-02-06T10:46:37.475Z,43.93
2019-02-06T10:49:06.179Z,49.23
2019-02-06T10:51:34.395Z,45.83
2019-02-06T10:54:02.711Z,40.50
2019-02-06T10:56:31.007Z,49.90
2019-02-06T10:58:59.324Z,46.47
2019-02-06T11:01:27.544Z,49.43
2019-02-06T11:03:55.791Z,40.83
2019-02-06T11:06:24.211Z,38.03
2019-02-06T11:08:52.627Z,60.88
2019-02-06T11:11:20.847Z,57.77
2019-02-06T11:13:49.826Z,37.63
2019-02-06T11:16:18.351Z,41.83
2019-02-06T11:18:46.599Z,44.50
2019-02-06T11:21:17.634Z,47.03
2019-02-06T11:23:45.876Z,45.50
2019-02-06T11:26:14.095Z,43.80
2019-02-06T11:28:42.344Z,47.17
2019-02-06T11:31:10.567Z,40.27
2019-02-06T11:33:38.811Z,42.93
2019-02-06T11:36:07.094Z,44.37
2019-02-06T11:38:35.646Z,52.37
2019-02-06T11:41:03.933Z,47.53
2019-02-06T11:43:32.360Z,41.70
2019-02-06T11:46:00.632Z,38.87
2019-02-06T11:48:28.947Z,39.33
2019-02-06T11:50:57.240Z,42.57
2019-02-06T11:53:26.507Z,46.33
2019-02-06T11:55:54.971Z,37.00
2019-02-06T11:58:23.295Z,44.00
2019-02-06T12:00:58.963Z,41.23
2019-02-06T12:03:27.213Z,42.90
2019-02-06T12:05:55.431Z,42.00
2019-02-06T12:08:23.659Z,45.13
2019-02-06T12:10:51.976Z,43.23
2019-02-06T12:13:20.205Z,44.03
2019-02-06T12:15:48.444Z,46.07
2019-02-06T12:18:16.667Z,43.43
2019-02-06T12:20:44.924Z,38.03
2019-02-06T12:23:13.140Z,41.80
2019-02-06T12:25:41.382Z,44.43
2019-02-06T12:28:09.602Z,33.73
2019-02-06T12:30:39.396Z,64.85
2019-02-06T12:33:07.611Z,50.43
2019-02-06T12:35:35.922Z,34.13
2019-02-06T12:38:04.512Z,44.50
2019-02-06T12:40:32.827Z,48.50
2019-02-06T12:43:01.049Z,51.10
2019-02-06T12:45:29.363Z,41.13
2019-02-06T12:47:57.576Z,47.20
2019-02-06T12:50:26.095Z,40.27
2019-02-06T12:52:57.257Z,46.73
2019-02-06T12:55:34.922Z,46.50
2019-02-06T12:58:03.311Z,34.47
2019-02-06T13:00:32.901Z,42.00
2019-02-06T13:03:01.391Z,35.37
2019-02-06T13:05:29.912Z,36.17
2019-02-06T13:07:58.296Z,40.37
2019-02-06T13:10:33.909Z,46.23
2019-02-06T13:12:56.468Z,38.43
2019-02-06T13:15:24.687Z,27.47
2019-02-06T13:17:53.407Z,37.83
2019-02-06T13:20:22.698Z,31.93
2019-02-06T13:22:51.012Z,40.20
2019-02-06T13:25:19.300Z,31.33
2019-02-06T13:27:47.543Z,29.00
2019-02-06T13:30:20.251Z,23.80
2019-02-06T13:32:48.798Z,28.43
2019-02-06T13:35:17.782Z,36.80
2019-02-06T13:37:46.203Z,33.13
2019-02-06T13:40:21.647Z,28.00
2019-02-06T13:42:49.964Z,26.97
2019-02-06T13:45:25.209Z,39.07
2019-02-06T13:47:53.451Z,32.60
2019-02-06T13:50:22.495Z,28.83
2019-02-06T13:52:50.795Z,29.53
2019-02-06T13:55:19.007Z,30.33
2019-02-06T13:57:47.325Z,33.10
2019-02-06T14:00:19.867Z,28.13
2019-02-06T14:02:48.784Z,38.83
2019-02-06T14:05:18.273Z,28.00
2019-02-06T14:07:46.789Z,33.90
2019-02-06T14:10:16.176Z,32.47
2019-02-06T14:12:44.500Z,25.90
2019-02-06T14:15:17.167Z,35.97
2019-02-06T14:17:45.482Z,36.93
2019-02-06T14:20:15.247Z,27.60
2019-02-06T14:22:43.562Z,37.70
2019-02-06T14:25:22.140Z,35.30
2019-02-06T14:27:54.616Z,40.00
2019-02-06T14:30:30.331Z,39.53
2019-02-06T14:33:03.064Z,29.30
2019-02-06T14:35:35.750Z,40.07
2019-02-06T14:38:08.521Z,41.97
2019-02-06T14:40:41.349Z,38.43
2019-02-06T14:43:14.068Z,34.27
2019-02-06T14:46:00.296Z,31.03
2019-02-06T14:48:39.066Z,28.70
2019-02-06T14:51:08.824Z,36.53
2019-02-06T14:53:56.790Z,39.53
2019-02-06T14:56:43.280Z,30.93
2019-02-06T14:59:21.964Z,30.40
2019-02-06T15:01:54.663Z,33.80
2019-02-06T15:04:33.657Z,36.63
2019-02-06T15:07:03.411Z,25.73
2019-02-06T15:09:42.307Z,33.80
2019-02-06T15:12:24.121Z,23.43
2019-02-06T15:14:53.904Z,21.10
2019-02-06T15:17:26.752Z,23.57
2019-02-06T15:19:59.195Z,26.03
2019-02-06T15:22:34.959Z,20.20
2019-02-06T15:25:10.420Z,24.17
2019-02-06T15:27:46.183Z,18.77
2019-02-06T15:30:24.700Z,28.37
2019-02-06T15:33:09.442Z,23.07
2019-02-06T15:35:45.428Z,23.00
2019-02-06T15:38:18.347Z,22.77
2019-02-06T15:40:48.100Z,20.30
2019-02-06T15:43:26.627Z,23.77
2019-02-06T15:45:59.368Z,27.47
2019-02-06T15:48:29.152Z,28.50
2019-02-06T15:51:08.095Z,32.87
2019-02-06T15:53:43.711Z,28.40
2019-02-06T15:56:20.039Z,52.67
2019-02-06T15:58:55.996Z,31.27
2019-02-06T16:01:25.759Z,26.87
2019-02-06T16:04:11.508Z,26.57
2019-02-06T16:06:59.477Z,23.60
2019-02-06T16:09:45.844Z,29.00
2019-02-06T16:12:21.686Z,24.87
2019-02-06T16:15:07.896Z,25.53
2019-02-06T16:17:37.723Z,30.70
2019-02-06T16:20:10.431Z,20.73
2019-02-06T16:22:52.769Z,26.37
2019-02-06T16:25:25.387Z,24.37
2019-02-06T16:28:04.315Z,24.93
2019-02-06T16:30:34.107Z,26.40
2019-02-06T16:33:20.430Z,30.27
2019-02-06T16:35:50.216Z,27.83
2019-02-06T16:38:19.967Z,20.30
2019-02-06T16:40:58.503Z,27.30
2019-02-06T16:43:30.927Z,26.17
2019-02-06T16:46:03.455Z,33.17
2019-02-06T16:48:49.975Z,53.13
2019-02-06T16:51:20.068Z,35.60
2019-02-06T16:53:58.943Z,34.60
2019-02-06T16:56:31.635Z,31.67
2019-02-06T16:59:04.601Z,26.23
2019-02-06T17:01:51.287Z,24.20
2019-02-06T17:04:27.037Z,20.60
2019-02-06T17:06:56.824Z,35.10
2019-02-06T17:09:29.535Z,31.40
2019-02-06T17:12:04.509Z,90.47
2019-02-06T17:14:50.260Z,82.70
2019-02-06T17:17:20.015Z,39.10
2019-02-06T17:19:52.547Z,34.00
2019-02-06T17:22:22.306Z,32.60
2019-02-06T17:24:58.027Z,35.27
2019-02-06T17:27:44.483Z,35.13
2019-02-06T17:30:17.383Z,33.83
2019-02-06T17:32:53.063Z,33.17
2019-02-06T17:35:25.518Z,39.77
2019-02-06T17:38:11.987Z,38.77
2019-02-06T17:40:58.480Z,32.93
2019-02-06T17:43:28.235Z,35.20
2019-02-06T17:46:03.715Z,34.20
2019-02-06T17:48:33.871Z,37.87
2019-02-06T17:51:06.791Z,35.83
2019-02-06T17:53:36.551Z,39.13
2019-02-06T17:56:04.972Z,30.30
2019-02-06T17:58:34.466Z,38.77
2019-02-06T18:01:04.719Z,39.57
2019-02-06T18:03:34.812Z,43.17
2019-02-06T18:06:03.127Z,30.43
2019-02-06T18:08:31.342Z,39.97
2019-02-06T18:10:59.588Z,40.43
2019-02-06T18:13:27.807Z,43.53
2019-02-06T18:16:21.448Z,35.80
2019-02-06T18:18:46.732Z,33.20
2019-02-06T18:21:14.981Z,41.97
2019-02-06T18:23:43.195Z,17.00
2019-02-06T18:26:11.547Z,32.03
2019-02-06T18:28:39.772Z,37.43
2019-02-06T18:31:08.347Z,35.20
2019-02-06T18:33:36.665Z,51.47
2019-02-06T18:36:05.552Z,41.97
2019-02-06T18:38:33.867Z,27.47
2019-02-06T18:41:02.155Z,25.70
2019-02-06T18:43:30.417Z,29.10
2019-02-06T18:45:58.700Z,38.10
2019-02-06T18:48:27.992Z,26.43
2019-02-06T18:50:56.916Z,33.77
2019-02-06T18:53:25.195Z,29.90
2019-02-06T18:55:53.626Z,36.37
2019-02-06T18:58:21.965Z,42.63
2019-02-06T19:00:50.208Z,31.77
2019-02-06T19:03:19.690Z,38.20
2019-02-06T19:05:48.219Z,42.47
2019-02-06T19:08:16.443Z,41.67
2019-02-06T19:10:44.671Z,40.10
2019-02-06T19:13:12.983Z,44.23
2019-02-06T19:15:41.231Z,27.30
2019-02-06T19:18:10.329Z,35.83
2019-02-06T19:20:38.639Z,25.67
2019-02-06T19:23:06.938Z,29.17
2019-02-06T19:25:35.239Z,38.13
2019-02-06T19:28:03.451Z,37.83
2019-02-06T19:30:33.571Z,41.67
2019-02-06T19:33:01.851Z,36.47
2019-02-06T19:35:30.095Z,40.23
2019-02-06T19:37:58.342Z,37.83
2019-02-06T19:40:26.551Z,35.47
2019-02-06T19:43:01.945Z,39.30
2019-02-06T19:45:24.727Z,28.90
2019-02-06T19:47:53.250Z,34.30
2019-02-06T19:50:25.630Z,33.93
2019-02-06T19:52:54.737Z,20.53
2019-02-06T19:55:23.167Z,34.80
2019-02-06T19:57:51.455Z,22.13
2019-02-06T20:00:21.180Z,28.57
2019-02-06T20:02:49.466Z,22.23
2019-02-06T20:05:18.353Z,24.17
2019-02-06T20:07:47.000Z,30.07
2019-02-06T20:10:16.756Z,40.07
2019-02-06T20:12:45.020Z,25.90
2019-02-06T20:15:13.511Z,30.60
2019-02-06T20:17:41.750Z,39.27
2019-02-06T20:20:14.452Z,32.60
2019-02-06T20:22:42.666Z,37.03
2019-02-06T20:25:11.574Z,27.27
2019-02-06T20:27:39.824Z,26.20
2019-02-06T20:30:09.576Z,25.87
2019-02-06T20:32:37.819Z,29.70
2019-02-06T20:35:07.571Z,38.33
2019-02-06T20:37:35.882Z,26.87
2019-02-06T20:40:05.645Z,31.63
2019-02-06T20:42:34.187Z,36.00
2019-02-06T20:45:02.399Z,32.80
2019-02-06T20:47:30.639Z,37.10
2019-02-06T20:49:58.857Z,29.60
2019-02-06T20:52:27.104Z,33.40
2019-02-06T20:54:55.319Z,31.07
2019-02-06T20:57:23.559Z,29.80
2019-02-06T20:59:51.780Z,28.80
2019-02-06T21:02:20.027Z,24.70
2019-02-06T21:04:48.235Z,39.23
2019-02-06T21:07:16.483Z,34.80
2019-02-06T21:09:44.700Z,25.47
2019-02-06T21:12:12.952Z,39.77
2019-02-06T21:14:41.163Z,35.97
2019-02-06T21:17:09.412Z,36.67
2019-02-06T21:19:37.632Z,26.50
2019-02-06T21:22:05.943Z,42.37
2019-02-06T21:24:34.187Z,34.93
2019-02-06T21:27:02.441Z,32.70
2019-02-06T21:29:30.647Z,36.07
2019-02-06T21:31:58.891Z,41.30
2019-02-06T21:34:27.108Z,35.73
2019-02-06T21:36:55.352Z,30.27
2019-02-06T21:39:23.640Z,36.27
2019-02-06T21:41:51.891Z,32.73
2019-02-06T21:44:20.108Z,37.83
2019-02-06T21:46:48.329Z,35.43
2019-02-06T21:49:16.580Z,45.90
2019-02-06T21:51:45.187Z,32.13
2019-02-06T21:54:13.436Z,33.23
2019-02-06T21:56:41.651Z,37.10
2019-02-06T21:59:11.661Z,37.57
2019-02-06T22:01:39.763Z,28.83
2019-02-06T22:04:08.012Z,29.50
2019-02-06T22:06:36.299Z,28.93
2019-02-06T22:09:05.907Z,35.17
2019-02-06T22:11:34.116Z,25.60
2019-02-06T22:14:02.427Z,34.57
2019-02-06T22:16:30.643Z,39.50
2019-02-06T22:18:58.895Z,31.70
2019-02-06T22:21:27.175Z,31.40
2019-02-06T22:23:55.724Z,19.70
2019-02-06T22:26:23.939Z,36.33
2019-02-06T22:28:52.184Z,20.07
2019-02-06T22:31:20.463Z,35.53
2019-02-06T22:33:48.711Z,19.90
2019-02-06T22:36:16.924Z,33.13
2019-02-06T22:38:45.240Z,39.23
2019-02-06T22:41:13.459Z,43.67
2019-02-06T22:43:41.711Z,37.80
2019-02-06T22:46:09.931Z,32.93
2019-02-06T22:48:38.215Z,35.63
2019-02-06T22:51:06.562Z,35.03
2019-02-06T22:53:34.774Z,35.43
2019-02-06T22:56:03.391Z,30.40
2019-02-06T22:58:31.613Z,40.10
2019-02-06T23:01:04.191Z,42.23
2019-02-06T23:03:33.975Z,35.00
2019-02-06T23:06:02.491Z,44.90
2019-02-06T23:08:30.838Z,39.37
2019-02-06T23:10:59.383Z,37.50
2019-02-06T23:13:27.672Z,37.53
2019-02-06T23:15:55.915Z,27.53
2019-02-06T23:18:24.120Z,37.43
2019-02-06T23:20:52.467Z,42.03
2019-02-06T23:23:20.684Z,32.77
2019-02-06T23:25:48.931Z,31.43
2019-02-06T23:28:17.151Z,45.43
2019-02-06T23:30:45.399Z,32.40
2019-02-06T23:33:13.639Z,29.73
2019-02-06T23:35:41.936Z,25.43
2019-02-06T23:38:10.221Z,27.87
2019-02-06T23:40:38.533Z,41.63
2019-02-06T23:43:07.123Z,39.33
2019-02-06T23:45:35.369Z,40.10
2019-02-06T23:48:03.655Z,27.40
2019-02-06T23:50:32.811Z,34.80
2019-02-06T23:53:01.024Z,28.20
2019-02-06T23:55:29.231Z,38.10
2019-02-06T23:57:57.476Z,43.77
